Time;durP1;ratioP1;P1;durP2;ratioP2;P2;SDS_P1;SDS_P2;PMS_P1;PMS_P2;Temp;Humidity;BMP_temperature;BMP_pressure;BME280_temperature;BME280_humidity;BME280_pressure;Samples;Min_cycle;Max_cycle;Signal;HPM_P1;HPM_P2
2022/11/27 00:01:11;;;;;;;1999.90;294.70;;;10.90;99.90;;;;;;5114566;28;20112;-74
2022/11/27 00:03:38;;;;;;;1999.90;999.90;;;11.10;99.90;;;;;;5113150;28;20480;-75
2022/11/27 00:06:03;;;;;;;1999.90;999.90;;;10.70;99.90;;;;;;5114089;28;20047;-75
2022/11/27 00:08:29;;;;;;;1999.90;999.90;;;10.70;99.90;;;;;;5113157;28;20051;-74
2022/11/27 00:10:55;;;;;;;1970.78;808.30;;;9.60;99.90;;;;;;5113447;28;20086;-73
2022/11/27 00:13:20;;;;;;;1999.90;456.63;;;10.70;99.90;;;;;;5113853;28;20047;-74
2022/11/27 00:15:46;;;;;;;1999.90;999.90;;;10.70;36.70;;;;;;5112514;28;20134;-75
2022/11/27 00:18:12;;;;;;;1999.90;277.00;;;10.70;37.50;;;;;;5113095;28;20057;-76
2022/11/27 00:20:38;;;;;;;1999.90;256.10;;;10.30;8.90;;;;;;5095080;28;20090;-76
2022/11/27 00:23:04;;;;;;;1999.90;999.90;;;11.00;1.00;;;;;;5113458;28;20052;-76
2022/11/27 00:25:30;;;;;;;1999.90;999.90;;;10.90;70.30;;;;;;5112290;28;20050;-75
2022/11/27 00:27:55;;;;;;;1676.75;770.20;;;10.70;49.40;;;;;;5113485;28;20059;-75
2022/11/27 00:30:21;;;;;;;1999.90;999.90;;;10.60;65.80;;;;;;5111877;28;20044;-76
2022/11/27 00:32:47;;;;;;;1937.07;431.13;;;10.60;25.90;;;;;;5113092;28;20083;-75
2022/11/27 00:35:12;;;;;;;1999.90;999.90;;;10.50;10.80;;;;;;5113499;28;20126;-75
2022/11/27 00:37:38;;;;;;;1999.90;999.90;;;10.50;40.00;;;;;;5113105;28;20040;-75
2022/11/27 00:40:04;;;;;;;1999.90;999.90;;;10.50;1.00;;;;;;5113142;28;20048;-76
2022/11/27 00:42:30;;;;;;;1083.38;514.08;;;10.50;1.00;;;;;;5113372;28;20401;-76
2022/11/27 00:44:56;;;;;;;1742.63;781.53;;;10.50;1.00;;;;;;5113260;28;20049;-75
2022/11/27 00:47:21;;;;;;;1338.22;547.50;;;10.50;1.00;;;;;;5113321;28;20038;-76
2022/11/27 00:49:47;;;;;;;575.85;72.03;;;10.50;1.00;;;;;;5112900;28;20126;-76
2022/11/27 00:52:12;;;;;;;1999.90;621.50;;;10.50;1.00;;;;;;5111830;28;20059;-76
2022/11/27 00:54:38;;;;;;;1999.90;999.90;;;10.40;1.00;;;;;;5113090;28;20043;-75
2022/11/27 00:57:04;;;;;;;1999.90;999.90;;;10.40;99.90;;;;;;5094761;28;20043;-75
2022/11/27 00:59:30;;;;;;;1906.40;443.17;;;10.40;99.90;;;;;;5111921;28;20055;-75
2022/11/27 01:01:55;;;;;;;1765.05;593.72;;;10.30;99.90;;;;;;5112289;28;20211;-75
2022/11/27 01:04:21;;;;;;;1999.90;999.90;;;10.70;1.00;;;;;;5112960;28;20088;-75
2022/11/27 01:06:47;;;;;;;1999.90;999.90;;;10.70;99.90;;;;;;5111308;28;20075;-77
2022/11/27 01:09:13;;;;;;;1325.78;183.93;;;10.40;99.90;;;;;;5112448;28;20082;-76
2022/11/27 01:11:39;;;;;;;1999.90;486.23;;;10.00;99.90;;;;;;5112713;28;20055;-76
2022/11/27 01:14:10;;;;;;;1999.90;637.95;;;10.30;99.90;;;;;;5112482;28;20055;-75
2022/11/27 01:16:36;;;;;;;1999.90;645.97;;;;;;;;;;5077733;28;20059;-75
2022/11/27 01:19:03;;;;;;;1999.90;999.90;;;8.70;99.90;;;;;;5112047;28;20496;-78
2022/11/27 01:21:31;;;;;;;1999.90;999.90;;;10.70;99.90;;;;;;5112502;28;20048;-74
2022/11/27 01:23:58;;;;;;;1999.90;626.63;;;10.60;99.90;;;;;;5111982;28;20512;-74
2022/11/27 01:26:25;;;;;;;1999.90;999.90;;;10.20;99.90;;;;;;5112574;28;20079;-77
2022/11/27 01:28:52;;;;;;;654.75;97.20;;;11.30;99.90;;;;;;5111875;28;20043;-74
2022/11/27 01:31:21;;;;;;;1999.90;490.25;;;10.20;99.90;;;;;;5111879;28;20048;-75
2022/11/27 01:33:47;;;;;;;1999.90;780.58;;;11.10;99.90;;;;;;5111981;28;20499;-74
2022/11/27 01:36:14;;;;;;;1999.90;750.60;;;10.20;99.90;;;;;;5112844;28;20053;-75
2022/11/27 01:38:41;;;;;;;1999.90;814.42;;;10.20;99.90;;;;;;5110862;28;20488;-75
2022/11/27 01:41:28;;;;;;;1999.90;999.90;;;8.70;99.90;;;;;;5112913;28;20055;-77
2022/11/27 01:44:23;;;;;;;449.73;70.90;;;10.80;99.90;;;;;;5112103;28;20079;-74
2022/11/27 01:46:54;;;;;;;1999.90;999.90;;;10.10;99.90;;;;;;5098047;28;20403;-76
2022/11/27 01:49:39;;;;;;;1999.90;463.55;;;10.10;99.90;;;;;;5098271;28;20047;-74
2022/11/27 01:52:25;;;;;;;1999.90;872.70;;;10.00;99.90;;;;;;5116293;28;20494;-75
2022/11/27 01:55:09;;;;;;;1369.13;546.78;;;10.30;99.90;;;;;;5116969;28;20054;-75
2022/11/27 01:58:06;;;;;;;1096.28;161.45;;;10.00;99.90;;;;;;5116684;28;20185;-75
2022/11/27 02:00:32;;;;;;;1999.90;817.25;;;10.00;87.40;;;;;;5076650;28;20121;-76
2022/11/27 02:02:58;;;;;;;1999.90;999.90;;;10.00;40.30;;;;;;5115165;28;20113;-75
2022/11/27 02:05:27;;;;;;;1999.90;999.90;;;9.90;80.10;;;;;;5116378;28;20488;-76
2022/11/27 02:07:55;;;;;;;1999.90;939.40;;;9.90;68.70;;;;;;5116157;28;20079;-75
2022/11/27 02:10:26;;;;;;;1999.90;999.90;;;10.20;48.40;;;;;;5116052;28;20043;-76
2022/11/27 02:13:04;;;;;;;1577.40;760.03;;;10.20;4.20;;;;;;5115063;28;20073;-75
2022/11/27 02:15:50;;;;;;;1999.90;737.22;;;10.00;1.00;;;;;;5116508;28;20047;-75
2022/11/27 02:18:27;;;;;;;1999.90;999.90;;;10.00;1.00;;;;;;5115634;28;20051;-75
2022/11/27 02:21:06;;;;;;;1999.90;589.05;;;10.00;1.00;;;;;;5115984;28;20051;-75
2022/11/27 02:23:52;;;;;;;1999.90;999.90;;;10.10;99.90;;;;;;5116135;28;20051;-75
2022/11/27 02:26:42;;;;;;;1999.90;597.70;;;10.00;99.90;;;;;;5116341;28;20118;-75
2022/11/27 02:29:10;;;;;;;1999.90;999.90;;;10.00;99.90;;;;;;5115374;28;20407;-75
2022/11/27 02:31:44;;;;;;;;;;;9.40;99.90;;;;;;5115119;28;20051;-76
2022/11/27 02:34:13;;;;;;;1999.90;699.58;;;10.00;99.90;;;;;;5114148;28;20317;-75
2022/11/27 02:36:42;;;;;;;1999.90;999.90;;;10.00;99.90;;;;;;5115570;28;20052;-75
2022/11/27 02:39:13;;;;;;;1999.90;998.90;;;9.30;97.10;;;;;;5115082;28;20066;-75
2022/11/27 02:42:05;;;;;;;1999.90;833.10;;;10.00;90.20;;;;;;5097873;28;20117;-75
2022/11/27 02:44:34;;;;;;;1999.90;999.90;;;10.00;80.70;;;;;;5115969;28;20044;-75
2022/11/27 02:47:01;;;;;;;1999.90;919.22;;;10.00;35.80;;;;;;5115477;28;20039;-75
2022/11/27 02:49:27;;;;;;;1999.90;509.73;;;10.30;1.00;;;;;;5115420;28;20043;-75
2022/11/27 02:51:56;;;;;;;1999.90;435.45;;;7.60;1.00;;;;;;5114745;28;20532;-79
2022/11/27 02:54:26;;;;;;;1145.68;521.63;;;10.10;1.00;;;;;;5115422;28;20047;-75
2022/11/27 02:56:53;;;;;;;1999.90;705.30;;;9.50;99.90;;;;;;5114701;28;20400;-76
2022/11/27 02:59:21;;;;;;;1999.90;814.90;;;10.70;99.90;;;;;;5097408;28;20047;-75
2022/11/27 03:01:59;;;;;;;1999.90;999.90;;;11.10;99.90;;;;;;5097202;28;20084;-73
2022/11/27 03:04:33;;;;;;;1999.90;999.90;;;11.30;99.90;;;;;;5114682;28;20048;-73
2022/11/27 03:07:03;;;;;;;1795.65;817.83;;;10.20;99.90;;;;;;5114564;28;20044;-75
2022/11/27 03:09:40;;;;;;;1999.90;673.30;;;10.20;99.90;;;;;;5115211;28;20096;-74
2022/11/27 03:12:08;;;;;;;1999.90;883.20;;;10.20;99.90;;;;;;5080157;28;20052;-74
2022/11/27 03:14:37;;;;;;;1999.90;999.90;;;10.60;99.90;;;;;;5114094;28;20122;-73
2022/11/27 03:17:31;;;;;;;1999.90;999.90;;;10.20;99.90;;;;;;5096150;28;20130;-75
2022/11/27 03:20:06;;;;;;;1999.90;654.30;;;10.20;99.90;;;;;;5114451;28;20059;-74
2022/11/27 03:22:32;;;;;;;1999.90;706.45;;;10.30;58.50;;;;;;5096856;28;20138;-74
2022/11/27 03:24:58;;;;;;;1999.90;469.23;;;10.00;1.00;;;;;;5114764;28;20059;-73
2022/11/27 03:27:34;;;;;;;1999.90;999.90;;;10.30;1.00;;;;;;5114818;28;20040;-74
2022/11/27 03:30:03;;;;;;;1999.90;585.92;;;11.10;1.00;;;;;;5114537;28;20055;-75
2022/11/27 03:32:29;;;;;;;1999.90;512.97;;;10.20;1.00;;;;;;5096239;28;20077;-77
2022/11/27 03:34:55;;;;;;;1999.90;987.33;;;10.40;1.00;;;;;;5113976;28;20079;-76
2022/11/27 03:37:22;;;;;;;1999.90;848.38;;;10.30;1.00;;;;;;5114082;28;20388;-74
2022/11/27 03:39:49;;;;;;;1999.90;386.92;;;10.30;99.90;;;;;;5113760;28;20510;-75
2022/11/27 03:42:20;;;;;;;1999.90;633.90;;;10.20;99.90;;;;;;5079365;28;20054;-74
2022/11/27 03:45:21;;;;;;;1999.90;999.90;;;11.30;99.90;;;;;;5114334;28;20051;-74
2022/11/27 03:48:11;;;;;;;1999.90;645.72;;;10.20;99.90;;;;;;5114060;28;20437;-75
2022/11/27 03:50:52;;;;;;;1912.05;814.70;;;10.20;99.90;;;;;;5113935;28;20047;-74
2022/11/27 03:53:42;;;;;;;1999.90;807.85;;;10.30;99.90;;;;;;5113489;28;20131;-73
2022/11/27 03:56:37;;;;;;;1999.90;883.53;;;10.30;99.90;;;;;;5113572;28;20051;-74
2022/11/27 03:59:26;;;;;;;1999.90;944.85;;;10.30;99.90;;;;;;5113685;28;20050;-74
2022/11/27 04:01:51;;;;;;;1999.90;821.95;;;10.20;99.90;;;;;;5113999;28;20044;-74
2022/11/27 04:04:17;;;;;;;1266.60;218.95;;;8.30;99.90;;;;;;5112710;28;20057;-76
2022/11/27 04:06:43;;;;;;;1999.90;775.95;;;10.20;99.90;;;;;;5112550;28;20096;-77
2022/11/27 04:09:09;;;;;;;1999.90;839.28;;;10.20;99.90;;;;;;5111306;28;20054;-75
2022/11/27 04:11:35;;;;;;;1999.90;861.97;;;10.20;99.90;;;;;;5113202;28;20079;-76
2022/11/27 04:14:00;;;;;;;1982.70;310.60;;;10.20;99.90;;;;;;5113603;28;20043;-75
2022/11/27 04:16:26;;;;;;;1999.90;999.90;;;10.30;99.90;;;;;;5113434;28;20063;-75
2022/11/27 04:18:52;;;;;;;1999.90;855.38;;;10.20;99.90;;;;;;5112858;28;20107;-75
2022/11/27 04:21:17;;;;;;;1999.90;879.83;;;10.20;99.90;;;;;;5112451;28;20074;-76
2022/11/27 04:23:44;;;;;;;1999.90;638.28;;;10.20;99.90;;;;;;5113111;28;20047;-75
2022/11/27 04:26:10;;;;;;;1999.90;990.35;;;9.80;99.90;;;;;;5113115;28;20075;-74
2022/11/27 04:28:35;;;;;;;1999.90;862.15;;;9.90;99.90;;;;;;5113485;28;20040;-76
2022/11/27 04:31:01;;;;;;;1999.90;800.33;;;10.20;99.90;;;;;;5111268;28;20388;-75
2022/11/27 04:33:27;;;;;;;1741.38;784.40;;;10.20;99.90;;;;;;5095300;28;20043;-76
2022/11/27 04:35:52;;;;;;;1999.90;838.42;;;10.20;99.90;;;;;;5113340;28;20054;-75
2022/11/27 04:38:19;;;;;;;1999.90;942.67;;;10.20;99.90;;;;;;5112519;28;20051;-75
2022/11/27 04:40:45;;;;;;;1999.90;750.95;;;10.70;99.90;;;;;;5112214;28;20097;-75
2022/11/27 04:43:11;;;;;;;1999.90;757.47;;;9.50;99.90;;;;;;5112771;28;20134;-75
2022/11/27 04:45:36;;;;;;;1999.90;660.35;;;10.10;99.90;;;;;;5111972;28;20126;-75
2022/11/27 04:48:03;;;;;;;1031.47;157.88;;;9.80;99.90;;;;;;5112382;28;20046;-75
2022/11/27 04:50:29;;;;;;;1999.90;999.90;;;10.10;99.90;;;;;;5112790;28;20399;-75
2022/11/27 04:52:55;;;;;;;1999.90;673.13;;;10.20;99.90;;;;;;5113284;28;20234;-75
2022/11/27 04:55:21;;;;;;;1999.90;888.15;;;10.20;99.90;;;;;;5113110;28;20326;-76
2022/11/27 04:57:47;;;;;;;1999.90;999.90;;;10.20;99.90;;;;;;5095302;28;20070;-75
2022/11/27 05:00:13;;;;;;;1999.90;999.90;;;10.10;99.90;;;;;;5112796;28;20472;-75
2022/11/27 05:02:39;;;;;;;1999.90;912.22;;;10.10;99.90;;;;;;5113015;28;20047;-74
2022/11/27 05:05:05;;;;;;;1999.90;628.30;;;10.10;99.90;;;;;;5094707;28;20124;-75
2022/11/27 05:07:31;;;;;;;1146.10;331.08;;;10.10;99.90;;;;;;5113052;28;20414;-75
2022/11/27 05:09:56;;;;;;;1046.88;137.20;;;10.40;99.90;;;;;;5112535;28;20086;-75
2022/11/27 05:12:22;;;;;;;1999.90;805.03;;;10.10;99.90;;;;;;5112554;28;20047;-75
2022/11/27 05:14:48;;;;;;;1999.90;909.58;;;10.40;99.90;;;;;;5113101;28;20395;-77
2022/11/27 05:17:14;;;;;;;1999.90;999.90;;;11.50;99.90;;;;;;5094005;28;20058;-75
2022/11/27 05:19:39;;;;;;;1999.90;598.33;;;10.10;99.90;;;;;;5112306;28;20051;-75
2022/11/27 05:22:05;;;;;;;1999.90;999.90;;;10.10;99.90;;;;;;5094332;28;20110;-84
2022/11/27 05:24:31;;;;;;;1999.90;900.35;;;10.40;99.90;;;;;;5113032;28;20066;-75
2022/11/27 05:26:56;;;;;;;1999.90;993.85;;;10.10;99.90;;;;;;5112319;28;20391;-78
2022/11/27 05:29:23;;;;;;;1999.90;667.35;;;10.10;59.90;;;;;;5113041;28;20075;-79
2022/11/27 05:31:49;;;;;;;1999.90;999.90;;;10.20;75.80;;;;;;5112752;28;20101;-76
2022/11/27 05:34:15;;;;;;;1558.78;267.88;;;10.10;79.70;;;;;;5111781;28;20044;-75
2022/11/27 05:36:41;;;;;;;1999.90;999.90;;;10.00;91.60;;;;;;5112795;28;20046;-75
2022/11/27 05:39:09;;;;;;;754.22;141.40;;;10.00;59.00;;;;;;5112093;28;20050;-83
2022/11/27 05:41:36;;;;;;;1999.90;999.90;;;10.00;88.20;;;;;;5112986;28;20047;-75
2022/11/27 05:44:02;;;;;;;1999.90;999.90;;;10.00;61.80;;;;;;5112301;28;20150;-78
2022/11/27 05:46:28;;;;;;;1999.90;999.90;;;10.00;23.10;;;;;;5112052;28;20377;-76
2022/11/27 05:48:54;;;;;;;1774.45;782.33;;;10.00;43.50;;;;;;5112241;28;20059;-76
2022/11/27 05:51:20;;;;;;;1999.90;999.90;;;10.00;68.10;;;;;;5111590;28;20047;-76
2022/11/27 05:53:45;;;;;;;1825.32;804.03;;;10.00;71.20;;;;;;5093735;28;20134;-75
2022/11/27 05:56:14;;;;;;;1999.90;999.90;;;10.00;64.20;;;;;;5111948;28;20051;-76
2022/11/27 05:58:41;;;;;;;1999.90;991.03;;;9.90;7.80;;;;;;5112545;28;20068;-75
2022/11/27 06:01:08;;;;;;;1591.40;760.92;;;9.90;43.40;;;;;;5112673;28;20047;-76
2022/11/27 06:03:34;;;;;;;1999.90;999.90;;;9.90;20.70;;;;;;5111639;28;20047;-75
2022/11/27 06:06:07;;;;;;;1999.90;648.15;;;10.00;23.50;;;;;;5112425;28;20403;-76
2022/11/27 06:08:35;;;;;;;1999.90;999.90;;;10.00;29.60;;;;;;5112121;28;20050;-76
2022/11/27 06:11:08;;;;;;;1999.90;999.90;;;10.60;17.10;;;;;;5112363;28;20083;-76
2022/11/27 06:13:34;;;;;;;1579.32;761.38;;;10.00;23.50;;;;;;5111941;28;20423;-75
2022/11/27 06:16:20;;;;;;;1999.90;486.15;;;10.50;29.20;;;;;;5112619;28;20061;-76
2022/11/27 06:18:49;;;;;;;1999.90;996.95;;;10.40;17.80;;;;;;5112260;28;20051;-76
2022/11/27 06:21:16;;;;;;;1999.90;883.15;;;11.10;19.90;;;;;;5111774;28;20499;-75
2022/11/27 06:23:42;;;;;;;1999.90;692.80;;;10.40;1.00;;;;;;5094034;28;20519;-77
2022/11/27 06:26:18;;;;;;;1745.38;258.27;;;9.90;1.00;;;;;;5112276;28;20100;-76
2022/11/27 06:28:44;;;;;;;1999.90;999.90;;;11.50;1.00;;;;;;5093881;28;20052;-77
2022/11/27 06:31:14;;;;;;;1999.90;988.70;;;9.90;1.00;;;;;;5113426;28;20380;-75
2022/11/27 06:33:40;;;;;;;1999.90;646.85;;;9.90;1.00;;;;;;5115772;28;20502;-76
2022/11/27 06:36:06;;;;;;;1999.90;906.67;;;10.00;1.00;;;;;;5116166;28;20067;-76
2022/11/27 06:38:34;;;;;;;1999.90;751.70;;;9.90;1.00;;;;;;5097046;28;20039;-76
2022/11/27 06:41:04;;;;;;;1999.90;550.80;;;9.90;1.00;;;;;;5115966;28;20044;-76
2022/11/27 06:43:30;;;;;;;1999.90;788.13;;;9.90;1.00;;;;;;5115601;28;20039;-77
2022/11/27 06:45:59;;;;;;;1999.90;534.28;;;10.20;1.00;;;;;;5097490;28;20074;-82
2022/11/27 06:48:24;;;;;;;1730.20;790.40;;;10.20;1.00;;;;;;5114895;28;20392;-77
2022/11/27 06:50:50;;;;;;;1999.90;707.42;;;9.90;1.00;;;;;;5116155;28;20047;-76
2022/11/27 06:53:17;;;;;;;1420.78;198.60;;;;;;;;;;5097216;28;20048;-82
2022/11/27 06:55:42;;;;;;;1999.90;879.92;;;9.90;1.00;;;;;;5115036;28;20040;-77
2022/11/27 06:58:08;;;;;;;1999.90;999.90;;;9.90;1.00;;;;;;5113344;28;20433;-76
2022/11/27 07:00:34;;;;;;;1999.90;999.90;;;;;;;;;;5115064;28;20039;-76
2022/11/27 07:03:00;;;;;;;1999.90;999.90;;;9.90;1.00;;;;;;5097553;28;20458;-76
2022/11/27 07:05:25;;;;;;;1999.90;650.70;;;10.80;1.00;;;;;;5114390;28;20411;-76
2022/11/27 07:07:51;;;;;;;1999.90;970.80;;;10.40;1.00;;;;;;5114845;28;20044;-78
2022/11/27 07:10:17;;;;;;;1999.90;999.90;;;11.00;1.00;;;;;;5115528;28;20120;-76
2022/11/27 07:12:42;;;;;;;1999.90;550.42;;;9.90;1.00;;;;;;5097139;28;20047;-76
2022/11/27 07:15:09;;;;;;;1999.90;547.42;;;9.90;1.00;;;;;;5113454;28;20050;-77
2022/11/27 07:17:36;;;;;;;1999.90;999.90;;;9.90;1.00;;;;;;5114852;28;20063;-77
2022/11/27 07:20:02;;;;;;;1999.90;999.90;;;9.90;1.00;;;;;;5113850;28;20054;-75
2022/11/27 07:22:27;;;;;;;1999.90;999.90;;;9.90;1.00;;;;;;5114293;28;20039;-77
2022/11/27 07:24:54;;;;;;;1999.90;999.90;;;9.80;1.00;;;;;;5113620;28;20048;-75
2022/11/27 07:27:19;;;;;;;1999.90;783.60;;;9.80;1.00;;;;;;5113438;28;20123;-75
2022/11/27 07:29:45;;;;;;;1999.90;534.92;;;9.90;1.00;;;;;;5078924;28;20131;-75
2022/11/27 07:32:11;;;;;;;1999.90;999.90;;;9.90;1.00;;;;;;5096768;28;20047;-76
2022/11/27 07:34:36;;;;;;;1999.90;909.67;;;9.90;1.00;;;;;;5113615;28;20324;-75
2022/11/27 07:37:02;;;;;;;1999.90;791.78;;;9.90;1.00;;;;;;5095722;28;20047;-75
2022/11/27 07:39:28;;;;;;;1999.90;841.90;;;9.90;1.00;;;;;;5078760;28;20050;-75
2022/11/27 07:41:53;;;;;;;1999.90;955.22;;;9.90;1.00;;;;;;5113310;28;20039;-76
2022/11/27 07:44:19;;;;;;;1999.90;999.90;;;10.50;1.00;;;;;;5112863;28;20048;-79
2022/11/27 07:46:45;;;;;;;1599.88;351.15;;;9.90;1.00;;;;;;5113834;28;20070;-75
2022/11/27 07:49:10;;;;;;;1999.90;999.90;;;9.90;1.00;;;;;;5114152;28;20188;-75
2022/11/27 07:51:37;;;;;;;1999.90;999.90;;;10.00;1.00;;;;;;5114218;28;20051;-76
2022/11/27 07:54:03;;;;;;;1999.90;753.47;;;10.20;1.00;;;;;;5113742;28;20040;-75
2022/11/27 07:56:29;;;;;;;1999.90;776.83;;;9.80;1.00;;;;;;5095754;28;20048;-75
2022/11/27 07:58:56;;;;;;;1999.90;851.80;;;9.90;1.00;;;;;;5114152;28;20054;-75
2022/11/27 08:01:22;;;;;;;1999.90;999.90;;;10.30;1.00;;;;;;5113931;28;20088;-77
2022/11/27 08:03:48;;;;;;;1999.90;714.80;;;10.10;1.00;;;;;;5094230;28;20052;-79
2022/11/27 08:06:25;;;;;;;1738.32;781.63;;;9.90;1.00;;;;;;5112940;28;20487;-77
2022/11/27 08:08:54;;;;;;;1999.90;999.90;;;10.90;1.00;;;;;;5113602;28;20036;-75
2022/11/27 08:11:26;;;;;;;1999.90;881.10;;;10.00;99.90;;;;;;5113803;28;20047;-76
2022/11/27 08:14:01;;;;;;;1999.90;900.45;;;10.00;99.90;;;;;;5113471;28;20054;-77
2022/11/27 08:16:28;;;;;;;1999.90;999.90;;;9.60;99.90;;;;;;5112378;28;20047;-74
2022/11/27 08:18:54;;;;;;;1999.90;999.90;;;10.00;99.90;;;;;;5113788;28;20044;-75
2022/11/27 08:21:20;;;;;;;1999.90;999.90;;;10.00;99.90;;;;;;5113430;28;20085;-75
2022/11/27 08:23:46;;;;;;;1999.90;727.65;;;10.00;99.90;;;;;;5113030;28;20440;-74
2022/11/27 08:26:12;;;;;;;1999.90;999.90;;;10.60;99.90;;;;;;5113025;28;20055;-75
2022/11/27 08:28:39;;;;;;;1999.90;706.10;;;10.10;99.90;;;;;;5095194;28;20047;-75
2022/11/27 08:31:06;;;;;;;1999.90;977.38;;;10.00;99.90;;;;;;5112572;28;20043;-75
2022/11/27 08:33:32;;;;;;;1999.90;634.95;;;10.10;99.90;;;;;;5112219;28;20108;-76
2022/11/27 08:35:57;;;;;;;1495.35;233.38;;;10.00;99.90;;;;;;5095724;28;20044;-75
2022/11/27 08:38:23;;;;;;;1999.90;759.10;;;10.10;99.90;;;;;;5093336;28;20441;-75
2022/11/27 08:41:00;;;;;;;1999.90;766.35;;;10.70;99.90;;;;;;5093781;28;20048;-75
2022/11/27 08:43:27;;;;;;;1724.95;781.45;;;10.60;99.90;;;;;;5112450;28;20071;-75
2022/11/27 08:45:53;;;;;;;1999.90;704.10;;;10.00;99.90;;;;;;5113650;28;20048;-75
2022/11/27 08:48:20;;;;;;;1999.90;982.50;;;10.10;99.90;;;;;;5094617;28;20488;-75
2022/11/27 08:50:47;;;;;;;1999.90;954.08;;;10.20;99.90;;;;;;5111736;28;20043;-76
2022/11/27 08:53:13;;;;;;;1999.90;777.33;;;10.00;99.90;;;;;;5112708;28;20392;-81
2022/11/27 08:55:39;;;;;;;1999.90;822.65;;;10.30;99.90;;;;;;5111677;28;20153;-76
2022/11/27 08:58:05;;;;;;;1999.90;662.30;;;10.30;99.90;;;;;;5112475;28;20649;-77
2022/11/27 09:00:32;;;;;;;1999.90;821.30;;;10.00;99.90;;;;;;5113164;28;20152;-82
2022/11/27 09:02:59;;;;;;;1999.90;737.85;;;10.00;99.90;;;;;;5112947;28;20104;-75
2022/11/27 09:05:25;;;;;;;1987.72;389.15;;;10.50;99.90;;;;;;5111374;28;20047;-75
2022/11/27 09:07:51;;;;;;;1999.90;999.90;;;10.60;99.90;;;;;;5111785;28;20484;-75
2022/11/27 09:10:18;;;;;;;1999.90;925.75;;;10.30;99.90;;;;;;5112948;28;20043;-75
2022/11/27 09:12:43;;;;;;;1999.90;761.25;;;9.80;99.90;;;;;;5112786;28;20102;-75
2022/11/27 09:15:11;;;;;;;1999.90;576.25;;;10.00;99.90;;;;;;5113172;28;20047;-75
2022/11/27 09:17:37;;;;;;;1999.90;999.90;;;10.10;99.90;;;;;;5088302;28;20059;-74
2022/11/27 09:20:04;;;;;;;1999.90;999.90;;;10.00;99.90;;;;;;5092160;28;20090;-82
2022/11/27 09:22:30;;;;;;;1999.90;866.78;;;10.10;99.90;;;;;;5092318;28;20492;-75
2022/11/27 09:24:56;;;;;;;1221.18;245.57;;;10.10;99.90;;;;;;5091215;28;20043;-74
2022/11/27 09:27:21;;;;;;;1999.90;716.55;;;10.10;99.90;;;;;;5074392;28;20437;-75
2022/11/27 09:29:48;;;;;;;1999.90;999.90;;;10.10;99.90;;;;;;5092304;28;20047;-75
2022/11/27 09:32:14;;;;;;;1999.90;999.90;;;10.30;99.90;;;;;;5092192;28;20172;-75
2022/11/27 09:34:40;;;;;;;1999.90;750.08;;;10.10;99.90;;;;;;5092087;28;20047;-75
2022/11/27 09:37:07;;;;;;;1460.45;247.70;;;10.10;99.90;;;;;;5092081;28;20182;-75
2022/11/27 09:39:33;;;;;;;1218.13;200.88;;;10.00;99.90;;;;;;5092565;28;20400;-76
2022/11/27 09:42:03;;;;;;;975.78;159.63;;;10.00;99.90;;;;;;5092555;28;20051;-75
2022/11/27 09:44:31;;;;;;;1219.57;534.88;;;10.60;1.00;;;;;;5092233;28;20058;-76
2022/11/27 09:47:00;;;;;;;1999.90;842.10;;;9.90;1.00;;;;;;5091940;28;20044;-80
2022/11/27 09:49:44;;;;;;;1999.90;563.13;;;9.90;1.00;;;;;;5092138;28;20114;-77
2022/11/27 09:52:13;;;;;;;1449.53;578.05;;;9.80;37.10;;;;;;5092072;28;20048;-77
2022/11/27 09:54:46;;;;;;;1628.38;772.13;;;10.10;73.30;;;;;;5091864;28;20044;-77
2022/11/27 09:57:15;;;;;;;1671.20;785.13;;;9.70;99.90;;;;;;5091331;28;20094;-77
2022/11/27 09:59:50;;;;;;;1999.90;791.58;;;9.60;99.90;;;;;;5091461;28;20491;-78
2022/11/27 10:02:22;;;;;;;1999.90;858.63;;;10.80;99.90;;;;;;5091427;28;20044;-77
2022/11/27 10:04:48;;;;;;;1999.90;586.35;;;11.10;99.90;;;;;;5090520;28;20126;-77
2022/11/27 10:07:24;;;;;;;1999.90;396.02;;;9.70;99.90;;;;;;5095179;28;20123;-77
2022/11/27 10:10:03;;;;;;;1999.90;709.65;;;9.60;1.00;;;;;;5096109;28;20048;-78
2022/11/27 10:12:35;;;;;;;1999.90;999.90;;;9.70;1.00;;;;;;5095416;28;20418;-77
2022/11/27 10:15:20;;;;;;;1999.90;440.13;;;9.70;1.00;;;;;;5095239;28;20040;-78
2022/11/27 10:17:51;;;;;;;1999.90;999.90;;;9.70;1.00;;;;;;5106547;28;20047;-78
2022/11/27 10:20:31;;;;;;;1326.60;244.00;;;9.80;7.60;;;;;;5115302;28;20387;-76
2022/11/27 10:22:59;;;;;;;1999.90;999.90;;;9.70;48.80;;;;;;5115448;28;20367;-76
2022/11/27 10:25:32;;;;;;;1999.90;999.90;;;9.80;92.70;;;;;;5114703;28;20089;-77
2022/11/27 10:28:11;;;;;;;1999.90;542.25;;;9.80;98.30;;;;;;5115450;28;20040;-78
2022/11/27 10:30:51;;;;;;;1999.90;999.90;;;10.00;99.90;;;;;;5115666;28;20043;-77
2022/11/27 10:33:24;;;;;;;1823.97;804.75;;;9.80;99.90;;;;;;5116092;28;20391;-77
2022/11/27 10:35:50;;;;;;;1999.90;794.15;;;9.70;99.90;;;;;;5113892;28;20047;-78
2022/11/27 10:38:22;;;;;;;1145.70;212.15;;;9.70;99.90;;;;;;5115584;28;20083;-78
2022/11/27 10:41:09;;;;;;;1999.90;772.95;;;8.30;99.90;;;;;;5097530;28;20047;-79
2022/11/27 10:43:35;;;;;;;1999.90;828.38;;;9.80;99.90;;;;;;5115920;28;20040;-78
2022/11/27 10:46:06;;;;;;;1713.70;655.42;;;9.80;13.20;;;;;;5097168;28;20490;-79
2022/11/27 10:48:32;;;;;;;1166.18;528.00;;;9.80;99.90;;;;;;5115531;28;20353;-79
2022/11/27 10:50:59;;;;;;;1999.90;539.38;;;11.00;1.00;;;;;;5115763;28;20127;-79
2022/11/27 10:53:36;;;;;;;1999.90;659.90;;;10.00;1.00;;;;;;5113795;28;20047;-76
2022/11/27 10:56:26;;;;;;;1999.90;999.90;;;9.80;99.90;;;;;;5114619;28;20483;-79
2022/11/27 10:58:58;;;;;;;1999.90;493.50;;;11.20;99.90;;;;;;5114733;28;20042;-81
2022/11/27 11:01:28;;;;;;;1999.90;678.55;;;10.40;99.90;;;;;;5115095;28;20040;-79
2022/11/27 11:04:07;;;;;;;1999.90;999.90;;;9.90;99.90;;;;;;5115093;28;20046;-78
2022/11/27 11:06:42;;;;;;;1999.90;734.80;;;9.90;99.90;;;;;;5114820;28;20035;-77
2022/11/27 11:09:34;;;;;;;1999.90;999.90;;;9.80;99.90;;;;;;5114909;28;20043;-79
2022/11/27 11:12:17;;;;;;;1999.90;913.92;;;10.20;99.90;;;;;;5112168;28;20056;-79
2022/11/27 11:14:53;;;;;;;1999.90;768.50;;;10.00;99.90;;;;;;5115258;28;20035;-79
2022/11/27 11:17:27;;;;;;;1999.90;947.10;;;9.20;99.90;;;;;;5113228;28;20043;-79
2022/11/27 11:19:52;;;;;;;1999.90;765.95;;;9.50;99.90;;;;;;5096707;28;20146;-80
2022/11/27 11:22:19;;;;;;;1584.65;763.53;;;10.00;99.90;;;;;;5113649;28;20122;-79
2022/11/27 11:24:52;;;;;;;1999.90;809.92;;;10.90;99.90;;;;;;5115018;28;20079;-80
2022/11/27 11:27:31;;;;;;;1999.90;417.52;;;10.40;99.90;;;;;;5114137;28;20074;-79
2022/11/27 11:30:03;;;;;;;1999.90;552.03;;;10.30;99.90;;;;;;5113594;28;20043;-80
2022/11/27 11:32:38;;;;;;;1999.90;999.90;;;11.10;99.90;;;;;;5114025;28;20046;-80
2022/11/27 11:35:08;;;;;;;1999.90;539.55;;;9.90;99.90;;;;;;5096378;28;20079;-80
2022/11/27 11:37:40;;;;;;;1665.10;773.33;;;10.00;99.90;;;;;;5114436;28;20177;-80
2022/11/27 11:40:12;;;;;;;1999.90;960.42;;;9.90;99.90;;;;;;5114323;28;20110;-80
2022/11/27 11:42:54;;;;;;;1999.90;610.28;;;10.00;99.90;;;;;;5113589;28;20510;-79
2022/11/27 11:45:21;;;;;;;1608.40;766.08;;;9.90;99.90;;;;;;5112836;28;20123;-81
2022/11/27 11:47:53;;;;;;;1999.90;848.53;;;10.00;99.90;;;;;;5095164;28;20075;-81
2022/11/27 11:50:51;;;;;;;1999.90;667.17;;;10.00;99.90;;;;;;5078553;28;20035;-79
2022/11/27 11:53:35;;;;;;;1570.70;759.97;;;9.90;99.90;;;;;;5114171;28;20427;-80
2022/11/27 11:56:29;;;;;;;1999.90;879.17;;;10.20;99.90;;;;;;5114043;28;20100;-80
2022/11/27 11:58:57;;;;;;;1999.90;782.03;;;10.90;99.90;;;;;;5113559;28;20035;-82
2022/11/27 12:01:42;;;;;;;1999.90;999.90;;;10.00;99.90;;;;;;5114330;28;20336;-79
2022/11/27 12:04:17;;;;;;;1999.90;415.67;;;10.10;99.90;;;;;;5113472;28;20387;-80
2022/11/27 12:06:57;;;;;;;1999.90;554.70;;;10.10;99.90;;;;;;5113807;28;20043;-82
2022/11/27 12:09:34;;;;;;;1999.90;695.53;;;10.10;99.90;;;;;;5114203;28;20048;-80
2022/11/27 12:12:07;;;;;;;1999.90;530.97;;;10.20;99.90;;;;;;5113973;28;20047;-81
2022/11/27 12:14:41;;;;;;;1999.90;410.50;;;10.10;99.90;;;;;;5114045;28;20039;-81
2022/11/27 12:17:23;;;;;;;1999.90;688.72;;;8.40;99.90;;;;;;5113200;28;20410;-81
2022/11/27 12:20:09;;;;;;;1999.90;556.67;;;10.20;99.90;;;;;;5113860;28;20555;-81